Main page
METAR-TAF:

METAR-TAF

Airports :

Kleine Brogel Air Base

Peer, Belgium

latitude: 51-10N, longitude: 005-28E, elevation: 55 m

Current weather observation

The report was made 29 minutes ago, at 05:25 UTC
Wind 5 kt from the West/Southwest
Temperature 3°C
Humidity 87%
Pressure 1025 hPa
Visibility 10 km or more
Broken clouds at a height of 4800 ft

METAR: EBBL 110525Z 24005KT 9999 BKN048 03/01 Q1025 BLU BLU

Time: 06:54 (05:54 UTC)

Forecast

The report was made 14 hours and 13 minutes ago, at 15:41 UTC
Forecast valid from 10 at 19 UTC to 11 at 07 UTC
Wind 8 kt from the West
Visibility 10 km or more
Scattered clouds at a height of 2500 ft
Becoming
from 11 at 03 UTC to 11 at 05 UTC
Wind 5 kt from the West
Broken clouds at a height of 3000 ft
Temporary
from 11 at 05 UTC to 11 at 07 UTC
Visibility: 6000 m

TAF: EBBL 101541Z 1019/1107 28008KT 9999 SCT025 BECMG 1103/1105 28005KT BKN030 TEMPO 1105/1107 6000

Weather observations and forecasts of more than 4000 airports (METAR and TAF reports).

The available stations are represented by yellow and red dots on the map.

Hover mouse over dot to see the name of the station.

Then click to see weather observations and forecasts.

To change the map : click on the green buttons with a black cross to zoom in, on the green button with a dash to zoom out, or on the green arrows for adjacent maps.


METAR-TAF: